sensor_id;sensor_type;location;lat;lon;timestamp;P1;durP1;ratioP1;P2;durP2;ratioP2
10009;SDS011;5044;48.652;9.250;2023-04-25T00:01:16;2.85;;;1.42;;
10009;SDS011;5044;48.652;9.250;2023-04-25T00:03:43;2.83;;;1.80;;
10009;SDS011;5044;48.652;9.250;2023-04-25T00:06:12;1.75;;;1.30;;
10009;SDS011;5044;48.652;9.250;2023-04-25T00:08:39;2.13;;;1.63;;
10009;SDS011;5044;48.652;9.250;2023-04-25T00:11:06;3.80;;;1.77;;
10009;SDS011;5044;48.652;9.250;2023-04-25T00:13:33;1.80;;;1.33;;
10009;SDS011;5044;48.652;9.250;2023-04-25T00:16:00;2.17;;;1.40;;
10009;SDS011;5044;48.652;9.250;2023-04-25T00:18:27;3.30;;;1.77;;
10009;SDS011;5044;48.652;9.250;2023-04-25T00:20:54;2.83;;;1.60;;
10009;SDS011;5044;48.652;9.250;2023-04-25T00:23:23;3.53;;;1.48;;
10009;SDS011;5044;48.652;9.250;2023-04-25T00:25:50;2.15;;;1.73;;
10009;SDS011;5044;48.652;9.250;2023-04-25T00:28:17;1.70;;;1.30;;
10009;SDS011;5044;48.652;9.250;2023-04-25T00:30:44;4.55;;;1.85;;
10009;SDS011;5044;48.652;9.250;2023-04-25T00:33:11;5.60;;;1.77;;
10009;SDS011;5044;48.652;9.250;2023-04-25T00:35:38;2.85;;;1.80;;
10009;SDS011;5044;48.652;9.250;2023-04-25T00:38:05;2.28;;;1.40;;
10009;SDS011;5044;48.652;9.250;2023-04-25T00:40:33;1.42;;;1.23;;
10009;SDS011;5044;48.652;9.250;2023-04-25T00:43:00;1.73;;;1.52;;
10009;SDS011;5044;48.652;9.250;2023-04-25T00:45:27;3.75;;;1.42;;
10009;SDS011;5044;48.652;9.250;2023-04-25T00:47:55;2.90;;;1.50;;
10009;SDS011;5044;48.652;9.250;2023-04-25T00:50:23;3.17;;;1.50;;
10009;SDS011;5044;48.652;9.250;2023-04-25T00:52:50;2.50;;;1.35;;
10009;SDS011;5044;48.652;9.250;2023-04-25T00:55:17;2.60;;;1.63;;
10009;SDS011;5044;48.652;9.250;2023-04-25T00:57:45;2.65;;;1.70;;
10009;SDS011;5044;48.652;9.250;2023-04-25T01:00:13;1.58;;;1.30;;
10009;SDS011;5044;48.652;9.250;2023-04-25T01:02:40;1.88;;;1.50;;
10009;SDS011;5044;48.652;9.250;2023-04-25T01:05:08;3.53;;;1.60;;
10009;SDS011;5044;48.652;9.250;2023-04-25T01:07:35;2.67;;;1.90;;
10009;SDS011;5044;48.652;9.250;2023-04-25T01:10:02;4.15;;;1.80;;
10009;SDS011;5044;48.652;9.250;2023-04-25T01:12:31;4.65;;;2.38;;
10009;SDS011;5044;48.652;9.250;2023-04-25T01:14:59;4.47;;;2.00;;
10009;SDS011;5044;48.652;9.250;2023-04-25T01:17:26;4.20;;;2.03;;
10009;SDS011;5044;48.652;9.250;2023-04-25T01:19:54;1.70;;;1.58;;
10009;SDS011;5044;48.652;9.250;2023-04-25T01:22:22;1.65;;;1.33;;
10009;SDS011;5044;48.652;9.250;2023-04-25T01:24:49;2.42;;;1.55;;
10009;SDS011;5044;48.652;9.250;2023-04-25T01:27:16;2.10;;;1.30;;
10009;SDS011;5044;48.652;9.250;2023-04-25T01:29:45;2.35;;;1.60;;
10009;SDS011;5044;48.652;9.250;2023-04-25T01:32:13;2.38;;;2.00;;
10009;SDS011;5044;48.652;9.250;2023-04-25T01:34:40;1.55;;;1.27;;
10009;SDS011;5044;48.652;9.250;2023-04-25T01:37:07;3.08;;;1.45;;
10009;SDS011;5044;48.652;9.250;2023-04-25T01:39:36;3.55;;;1.92;;
10009;SDS011;5044;48.652;9.250;2023-04-25T01:42:03;3.33;;;1.80;;
10009;SDS011;5044;48.652;9.250;2023-04-25T01:44:30;5.63;;;1.63;;
10009;SDS011;5044;48.652;9.250;2023-04-25T01:46:57;7.38;;;1.98;;
10009;SDS011;5044;48.652;9.250;2023-04-25T01:49:24;4.25;;;1.70;;
10009;SDS011;5044;48.652;9.250;2023-04-25T01:51:52;3.53;;;1.60;;
10009;SDS011;5044;48.652;9.250;2023-04-25T01:54:19;3.92;;;1.90;;
10009;SDS011;5044;48.652;9.250;2023-04-25T01:56:51;2.97;;;1.40;;
10009;SDS011;5044;48.652;9.250;2023-04-25T01:59:18;7.55;;;1.30;;
10009;SDS011;5044;48.652;9.250;2023-04-25T02:01:46;2.28;;;1.58;;
10009;SDS011;5044;48.652;9.250;2023-04-25T02:04:14;2.90;;;1.60;;
10009;SDS011;5044;48.652;9.250;2023-04-25T02:06:41;2.55;;;1.60;;
10009;SDS011;5044;48.652;9.250;2023-04-25T02:09:08;5.18;;;1.35;;
10009;SDS011;5044;48.652;9.250;2023-04-25T02:11:35;5.55;;;1.60;;
10009;SDS011;5044;48.652;9.250;2023-04-25T02:14:04;2.58;;;1.65;;
10009;SDS011;5044;48.652;9.250;2023-04-25T02:16:31;2.67;;;1.65;;
10009;SDS011;5044;48.652;9.250;2023-04-25T02:18:58;5.10;;;1.92;;
10009;SDS011;5044;48.652;9.250;2023-04-25T02:21:25;4.78;;;1.58;;
10009;SDS011;5044;48.652;9.250;2023-04-25T02:23:52;2.83;;;1.55;;
10009;SDS011;5044;48.652;9.250;2023-04-25T02:26:20;1.50;;;1.00;;
10009;SDS011;5044;48.652;9.250;2023-04-25T02:28:48;2.13;;;1.30;;
10009;SDS011;5044;48.652;9.250;2023-04-25T02:31:17;1.65;;;1.30;;
10009;SDS011;5044;48.652;9.250;2023-04-25T02:33:45;4.10;;;1.40;;
10009;SDS011;5044;48.652;9.250;2023-04-25T02:36:13;4.15;;;1.33;;
10009;SDS011;5044;48.652;9.250;2023-04-25T02:38:41;1.25;;;1.15;;
10009;SDS011;5044;48.652;9.250;2023-04-25T02:41:08;2.17;;;1.35;;
10009;SDS011;5044;48.652;9.250;2023-04-25T02:43:35;4.45;;;1.58;;
10009;SDS011;5044;48.652;9.250;2023-04-25T02:46:02;2.80;;;1.70;;
10009;SDS011;5044;48.652;9.250;2023-04-25T02:48:31;2.15;;;1.33;;
10009;SDS011;5044;48.652;9.250;2023-04-25T02:50:58;3.67;;;1.40;;
10009;SDS011;5044;48.652;9.250;2023-04-25T02:53:25;3.15;;;1.67;;
10009;SDS011;5044;48.652;9.250;2023-04-25T02:55:53;5.47;;;1.70;;
10009;SDS011;5044;48.652;9.250;2023-04-25T02:58:23;3.20;;;1.90;;
10009;SDS011;5044;48.652;9.250;2023-04-25T03:03:25;2.80;;;1.33;;
10009;SDS011;5044;48.652;9.250;2023-04-25T03:05:54;4.80;;;2.25;;
10009;SDS011;5044;48.652;9.250;2023-04-25T03:08:21;2.20;;;1.50;;
10009;SDS011;5044;48.652;9.250;2023-04-25T03:10:48;3.22;;;1.63;;
10009;SDS011;5044;48.652;9.250;2023-04-25T03:21:50;2.55;;;1.20;;
10009;SDS011;5044;48.652;9.250;2023-04-25T03:24:17;1.58;;;1.23;;
10009;SDS011;5044;48.652;9.250;2023-04-25T03:26:44;3.92;;;1.33;;
10009;SDS011;5044;48.652;9.250;2023-04-25T03:29:11;1.92;;;1.15;;
10009;SDS011;5044;48.652;9.250;2023-04-25T03:31:38;4.40;;;1.45;;
10009;SDS011;5044;48.652;9.250;2023-04-25T03:34:05;2.20;;;1.30;;
10009;SDS011;5044;48.652;9.250;2023-04-25T03:36:32;3.88;;;1.38;;
10009;SDS011;5044;48.652;9.250;2023-04-25T03:39:01;2.63;;;1.58;;
10009;SDS011;5044;48.652;9.250;2023-04-25T03:54:58;4.05;;;1.33;;
10009;SDS011;5044;48.652;9.250;2023-04-25T03:57:25;4.93;;;1.67;;
10009;SDS011;5044;48.652;9.250;2023-04-25T03:59:52;2.25;;;1.73;;
10009;SDS011;5044;48.652;9.250;2023-04-25T04:02:19;5.00;;;1.88;;
10009;SDS011;5044;48.652;9.250;2023-04-25T04:04:46;5.00;;;1.70;;
10009;SDS011;5044;48.652;9.250;2023-04-25T04:24:35;2.70;;;1.40;;
10009;SDS011;5044;48.652;9.250;2023-04-25T04:27:02;1.92;;;1.45;;
10009;SDS011;5044;48.652;9.250;2023-04-25T06:01:11;7.80;;;2.05;;
10009;SDS011;5044;48.652;9.250;2023-04-25T06:17:29;5.25;;;1.85;;
10009;SDS011;5044;48.652;9.250;2023-04-25T06:29:25;5.18;;;2.63;;
10009;SDS011;5044;48.652;9.250;2023-04-25T06:45:14;3.83;;;2.40;;
10009;SDS011;5044;48.652;9.250;2023-04-25T06:55:15;4.82;;;2.42;;
10009;SDS011;5044;48.652;9.250;2023-04-25T07:17:19;3.05;;;2.22;;
10009;SDS011;5044;48.652;9.250;2023-04-25T07:46:06;4.15;;;2.35;;
10009;SDS011;5044;48.652;9.250;2023-04-25T07:54:53;2.20;;;1.83;;
10009;SDS011;5044;48.652;9.250;2023-04-25T07:57:20;2.55;;;1.85;;
10009;SDS011;5044;48.652;9.250;2023-04-25T07:59:47;4.25;;;1.90;;
10009;SDS011;5044;48.652;9.250;2023-04-25T10:24:44;2.10;;;1.40;;
10009;SDS011;5044;48.652;9.250;2023-04-25T10:27:16;1.50;;;1.38;;
10009;SDS011;5044;48.652;9.250;2023-04-25T10:29:46;2.25;;;1.20;;
10009;SDS011;5044;48.652;9.250;2023-04-25T10:32:32;1.65;;;1.27;;
10009;SDS011;5044;48.652;9.250;2023-04-25T10:35:11;1.50;;;1.10;;
10009;SDS011;5044;48.652;9.250;2023-04-25T10:40:33;1.50;;;1.13;;
10009;SDS011;5044;48.652;9.250;2023-04-25T10:46:18;1.10;;;0.77;;
10009;SDS011;5044;48.652;9.250;2023-04-25T10:51:19;1.25;;;0.73;;
10009;SDS011;5044;48.652;9.250;2023-04-25T10:53:56;0.70;;;0.50;;
10009;SDS011;5044;48.652;9.250;2023-04-25T10:56:28;0.40;;;0.40;;
10009;SDS011;5044;48.652;9.250;2023-04-25T10:59:06;1.50;;;0.65;;
10009;SDS011;5044;48.652;9.250;2023-04-25T11:01:37;1.05;;;0.73;;
10009;SDS011;5044;48.652;9.250;2023-04-25T11:04:20;0.52;;;0.52;;
10009;SDS011;5044;48.652;9.250;2023-04-25T11:07:02;1.80;;;0.88;;
10009;SDS011;5044;48.652;9.250;2023-04-25T11:09:42;0.93;;;0.50;;
10009;SDS011;5044;48.652;9.250;2023-04-25T11:12:17;0.93;;;0.70;;
10009;SDS011;5044;48.652;9.250;2023-04-25T11:14:44;0.50;;;0.50;;
10009;SDS011;5044;48.652;9.250;2023-04-25T11:17:11;0.88;;;0.60;;
10009;SDS011;5044;48.652;9.250;2023-04-25T11:19:41;0.30;;;0.30;;
10009;SDS011;5044;48.652;9.250;2023-04-25T11:22:09;0.65;;;0.57;;
10009;SDS011;5044;48.652;9.250;2023-04-25T11:24:36;0.57;;;0.50;;
10009;SDS011;5044;48.652;9.250;2023-04-25T11:27:04;0.60;;;0.43;;
10009;SDS011;5044;48.652;9.250;2023-04-25T11:29:35;4.40;;;0.63;;
10009;SDS011;5044;48.652;9.250;2023-04-25T11:32:02;0.47;;;0.40;;
10009;SDS011;5044;48.652;9.250;2023-04-25T11:34:31;1.83;;;0.40;;
10009;SDS011;5044;48.652;9.250;2023-04-25T11:37:04;0.40;;;0.40;;
10009;SDS011;5044;48.652;9.250;2023-04-25T11:39:34;0.47;;;0.40;;
10009;SDS011;5044;48.652;9.250;2023-04-25T11:42:22;0.30;;;0.30;;
10009;SDS011;5044;48.652;9.250;2023-04-25T11:44:55;1.75;;;0.80;;
10009;SDS011;5044;48.652;9.250;2023-04-25T11:47:27;4.03;;;0.60;;
10009;SDS011;5044;48.652;9.250;2023-04-25T11:49:55;3.17;;;0.90;;
10009;SDS011;5044;48.652;9.250;2023-04-25T11:52:34;2.17;;;0.90;;
10009;SDS011;5044;48.652;9.250;2023-04-25T11:55:03;1.73;;;1.38;;
10009;SDS011;5044;48.652;9.250;2023-04-25T11:57:32;1.73;;;1.00;;
10009;SDS011;5044;48.652;9.250;2023-04-25T12:00:07;2.10;;;0.77;;
10009;SDS011;5044;48.652;9.250;2023-04-25T12:02:40;1.00;;;0.82;;
10009;SDS011;5044;48.652;9.250;2023-04-25T12:05:11;1.75;;;1.20;;
10009;SDS011;5044;48.652;9.250;2023-04-25T12:07:38;1.65;;;1.02;;
10009;SDS011;5044;48.652;9.250;2023-04-25T12:10:10;1.55;;;1.10;;
10009;SDS011;5044;48.652;9.250;2023-04-25T12:12:49;1.98;;;1.50;;
10009;SDS011;5044;48.652;9.250;2023-04-25T12:15:24;1.67;;;1.38;;
10009;SDS011;5044;48.652;9.250;2023-04-25T12:17:54;2.13;;;1.58;;
10009;SDS011;5044;48.652;9.250;2023-04-25T12:20:25;6.43;;;2.95;;
10009;SDS011;5044;48.652;9.250;2023-04-25T12:22:56;1.75;;;1.40;;
10009;SDS011;5044;48.652;9.250;2023-04-25T12:25:35;6.13;;;1.55;;
10009;SDS011;5044;48.652;9.250;2023-04-25T12:28:10;1.77;;;1.25;;
10009;SDS011;5044;48.652;9.250;2023-04-25T12:30:58;8.80;;;2.25;;
10009;SDS011;5044;48.652;9.250;2023-04-25T12:33:28;3.50;;;2.38;;
10009;SDS011;5044;48.652;9.250;2023-04-25T12:35:59;2.38;;;1.60;;
10009;SDS011;5044;48.652;9.250;2023-04-25T12:38:36;5.38;;;1.83;;
10009;SDS011;5044;48.652;9.250;2023-04-25T12:41:07;1.92;;;1.58;;
10009;SDS011;5044;48.652;9.250;2023-04-25T12:43:39;3.55;;;2.03;;
10009;SDS011;5044;48.652;9.250;2023-04-25T12:46:12;2.92;;;2.35;;
10009;SDS011;5044;48.652;9.250;2023-04-25T12:48:39;2.22;;;1.65;;
10009;SDS011;5044;48.652;9.250;2023-04-25T12:51:06;2.72;;;2.03;;
10009;SDS011;5044;48.652;9.250;2023-04-25T12:53:43;3.17;;;2.35;;
10009;SDS011;5044;48.652;9.250;2023-04-25T12:56:16;4.47;;;2.22;;
10009;SDS011;5044;48.652;9.250;2023-04-25T13:01:23;3.25;;;2.55;;
10009;SDS011;5044;48.652;9.250;2023-04-25T13:03:54;3.92;;;2.80;;
10009;SDS011;5044;48.652;9.250;2023-04-25T13:06:23;3.67;;;1.92;;
10009;SDS011;5044;48.652;9.250;2023-04-25T13:08:57;3.28;;;2.30;;
10009;SDS011;5044;48.652;9.250;2023-04-25T13:11:28;2.85;;;2.10;;
10009;SDS011;5044;48.652;9.250;2023-04-25T13:13:55;3.22;;;2.63;;
10009;SDS011;5044;48.652;9.250;2023-04-25T13:16:23;2.83;;;2.25;;
10009;SDS011;5044;48.652;9.250;2023-04-25T13:18:50;5.47;;;2.40;;
10009;SDS011;5044;48.652;9.250;2023-04-25T13:21:17;3.13;;;2.35;;
10009;SDS011;5044;48.652;9.250;2023-04-25T13:23:46;3.13;;;2.40;;
10009;SDS011;5044;48.652;9.250;2023-04-25T13:26:13;2.90;;;2.35;;
10009;SDS011;5044;48.652;9.250;2023-04-25T13:28:41;4.68;;;2.25;;
10009;SDS011;5044;48.652;9.250;2023-04-25T13:31:10;2.78;;;2.58;;
10009;SDS011;5044;48.652;9.250;2023-04-25T13:33:41;5.30;;;2.60;;
10009;SDS011;5044;48.652;9.250;2023-04-25T13:36:12;7.05;;;3.15;;
10009;SDS011;5044;48.652;9.250;2023-04-25T13:38:40;3.10;;;2.47;;
10009;SDS011;5044;48.652;9.250;2023-04-25T13:41:49;3.92;;;2.63;;
10009;SDS011;5044;48.652;9.250;2023-04-25T13:44:40;6.18;;;2.50;;
10009;SDS011;5044;48.652;9.250;2023-04-25T13:50:17;3.67;;;2.50;;
10009;SDS011;5044;48.652;9.250;2023-04-25T13:53:45;3.78;;;2.67;;
10009;SDS011;5044;48.652;9.250;2023-04-25T13:59:40;5.72;;;2.72;;
10009;SDS011;5044;48.652;9.250;2023-04-25T14:02:40;4.97;;;3.65;;
10009;SDS011;5044;48.652;9.250;2023-04-25T14:05:16;4.28;;;2.85;;
10009;SDS011;5044;48.652;9.250;2023-04-25T14:08:03;4.30;;;2.88;;
10009;SDS011;5044;48.652;9.250;2023-04-25T14:11:25;4.07;;;2.70;;
10009;SDS011;5044;48.652;9.250;2023-04-25T14:14:37;3.67;;;2.53;;
10009;SDS011;5044;48.652;9.250;2023-04-25T14:17:18;5.22;;;2.33;;
10009;SDS011;5044;48.652;9.250;2023-04-25T14:20:22;4.60;;;2.78;;
10009;SDS011;5044;48.652;9.250;2023-04-25T14:23:54;3.70;;;2.60;;
10009;SDS011;5044;48.652;9.250;2023-04-25T14:26:52;5.30;;;2.92;;
10009;SDS011;5044;48.652;9.250;2023-04-25T14:29:55;3.92;;;2.88;;
10009;SDS011;5044;48.652;9.250;2023-04-25T14:32:38;5.85;;;2.70;;
10009;SDS011;5044;48.652;9.250;2023-04-25T14:35:44;4.18;;;2.67;;
10009;SDS011;5044;48.652;9.250;2023-04-25T14:39:03;5.47;;;3.08;;
10009;SDS011;5044;48.652;9.250;2023-04-25T14:48:12;6.82;;;3.22;;
10009;SDS011;5044;48.652;9.250;2023-04-25T14:51:00;7.40;;;3.40;;
10009;SDS011;5044;48.652;9.250;2023-04-25T14:53:47;5.85;;;3.70;;
10009;SDS011;5044;48.652;9.250;2023-04-25T14:56:39;4.57;;;3.08;;
10009;SDS011;5044;48.652;9.250;2023-04-25T15:02:16;3.90;;;2.90;;
10009;SDS011;5044;48.652;9.250;2023-04-25T15:05:04;3.03;;;2.70;;
10009;SDS011;5044;48.652;9.250;2023-04-25T15:07:31;4.10;;;2.50;;
10009;SDS011;5044;48.652;9.250;2023-04-25T15:09:59;5.60;;;2.65;;
10009;SDS011;5044;48.652;9.250;2023-04-25T15:12:41;3.85;;;2.60;;
10009;SDS011;5044;48.652;9.250;2023-04-25T15:15:11;3.50;;;2.50;;
10009;SDS011;5044;48.652;9.250;2023-04-25T15:17:40;4.60;;;2.50;;
10009;SDS011;5044;48.652;9.250;2023-04-25T15:20:08;5.90;;;3.08;;
10009;SDS011;5044;48.652;9.250;2023-04-25T15:22:38;5.47;;;2.75;;
10009;SDS011;5044;48.652;9.250;2023-04-25T15:25:06;4.57;;;2.80;;
10009;SDS011;5044;48.652;9.250;2023-04-25T15:27:33;4.38;;;3.08;;
10009;SDS011;5044;48.652;9.250;2023-04-25T15:30:03;4.10;;;2.50;;
10009;SDS011;5044;48.652;9.250;2023-04-25T15:32:30;3.17;;;2.20;;
10009;SDS011;5044;48.652;9.250;2023-04-25T15:34:59;2.58;;;2.10;;
10009;SDS011;5044;48.652;9.250;2023-04-25T15:37:29;2.70;;;2.00;;
10009;SDS011;5044;48.652;9.250;2023-04-25T15:40:00;4.60;;;1.95;;
10009;SDS011;5044;48.652;9.250;2023-04-25T15:42:29;4.35;;;1.88;;
10009;SDS011;5044;48.652;9.250;2023-04-25T15:44:57;4.03;;;2.65;;
10009;SDS011;5044;48.652;9.250;2023-04-25T15:47:25;2.45;;;1.88;;
10009;SDS011;5044;48.652;9.250;2023-04-25T15:49:52;6.78;;;2.67;;
10009;SDS011;5044;48.652;9.250;2023-04-25T15:52:21;11.85;;;3.42;;
10009;SDS011;5044;48.652;9.250;2023-04-25T15:54:52;3.92;;;2.47;;
10009;SDS011;5044;48.652;9.250;2023-04-25T15:57:21;4.68;;;2.08;;
10009;SDS011;5044;48.652;9.250;2023-04-25T15:59:51;2.88;;;2.08;;
10009;SDS011;5044;48.652;9.250;2023-04-25T16:02:20;4.00;;;2.15;;
10009;SDS011;5044;48.652;9.250;2023-04-25T16:04:55;2.45;;;2.00;;
10009;SDS011;5044;48.652;9.250;2023-04-25T16:07:26;2.85;;;2.38;;
10009;SDS011;5044;48.652;9.250;2023-04-25T16:09:58;3.83;;;2.60;;
10009;SDS011;5044;48.652;9.250;2023-04-25T16:12:24;2.38;;;1.90;;
10009;SDS011;5044;48.652;9.250;2023-04-25T16:14:52;5.47;;;2.42;;
10009;SDS011;5044;48.652;9.250;2023-04-25T16:17:22;2.58;;;1.95;;
10009;SDS011;5044;48.652;9.250;2023-04-25T16:19:54;5.03;;;2.20;;
10009;SDS011;5044;48.652;9.250;2023-04-25T16:22:25;2.78;;;2.42;;
10009;SDS011;5044;48.652;9.250;2023-04-25T16:24:57;2.63;;;2.13;;
10009;SDS011;5044;48.652;9.250;2023-04-25T16:27:27;3.10;;;1.70;;
10009;SDS011;5044;48.652;9.250;2023-04-25T16:30:01;4.05;;;2.08;;
10009;SDS011;5044;48.652;9.250;2023-04-25T16:32:32;2.78;;;1.80;;
10009;SDS011;5044;48.652;9.250;2023-04-25T16:34:58;3.08;;;1.95;;
10009;SDS011;5044;48.652;9.250;2023-04-25T16:37:27;4.35;;;1.70;;
10009;SDS011;5044;48.652;9.250;2023-04-25T16:40:01;1.95;;;1.45;;
10009;SDS011;5044;48.652;9.250;2023-04-25T16:42:34;5.32;;;1.80;;
10009;SDS011;5044;48.652;9.250;2023-04-25T16:45:08;2.97;;;1.83;;
10009;SDS011;5044;48.652;9.250;2023-04-25T16:47:41;3.35;;;2.00;;
10009;SDS011;5044;48.652;9.250;2023-04-25T16:50:32;3.75;;;2.25;;
10009;SDS011;5044;48.652;9.250;2023-04-25T16:53:30;5.75;;;2.50;;
10009;SDS011;5044;48.652;9.250;2023-04-25T16:56:25;4.82;;;2.90;;
10009;SDS011;5044;48.652;9.250;2023-04-25T16:59:05;4.38;;;2.92;;
10009;SDS011;5044;48.652;9.250;2023-04-25T17:01:53;4.55;;;2.67;;
10009;SDS011;5044;48.652;9.250;2023-04-25T17:07:23;4.50;;;3.13;;
10009;SDS011;5044;48.652;9.250;2023-04-25T17:09:53;4.75;;;3.08;;
10009;SDS011;5044;48.652;9.250;2023-04-25T17:12:30;4.88;;;2.65;;
10009;SDS011;5044;48.652;9.250;2023-04-25T17:15:04;4.35;;;2.75;;
10009;SDS011;5044;48.652;9.250;2023-04-25T17:17:39;4.43;;;3.20;;
10009;SDS011;5044;48.652;9.250;2023-04-25T17:20:22;5.38;;;3.30;;
10009;SDS011;5044;48.652;9.250;2023-04-25T17:23:00;8.10;;;3.40;;
10009;SDS011;5044;48.652;9.250;2023-04-25T17:25:33;5.53;;;3.35;;
10009;SDS011;5044;48.652;9.250;2023-04-25T17:28:09;6.25;;;2.85;;
10009;SDS011;5044;48.652;9.250;2023-04-25T17:30:50;5.70;;;3.35;;
10009;SDS011;5044;48.652;9.250;2023-04-25T17:33:24;4.75;;;3.03;;
10009;SDS011;5044;48.652;9.250;2023-04-25T17:36:01;7.18;;;3.17;;
10009;SDS011;5044;48.652;9.250;2023-04-25T17:38:45;6.95;;;2.65;;
10009;SDS011;5044;48.652;9.250;2023-04-25T17:44:25;8.45;;;3.58;;
10009;SDS011;5044;48.652;9.250;2023-04-25T17:47:03;9.45;;;3.60;;
10009;SDS011;5044;48.652;9.250;2023-04-25T17:49:55;5.53;;;3.28;;
10009;SDS011;5044;48.652;9.250;2023-04-25T17:52:29;5.20;;;3.20;;
10009;SDS011;5044;48.652;9.250;2023-04-25T17:55:18;4.45;;;3.40;;
10009;SDS011;5044;48.652;9.250;2023-04-25T17:57:51;7.13;;;3.10;;
10009;SDS011;5044;48.652;9.250;2023-04-25T18:00:32;6.63;;;3.47;;
10009;SDS011;5044;48.652;9.250;2023-04-25T18:03:06;3.45;;;2.85;;
10009;SDS011;5044;48.652;9.250;2023-04-25T18:05:56;5.35;;;3.75;;
10009;SDS011;5044;48.652;9.250;2023-04-25T18:08:41;5.10;;;3.33;;
10009;SDS011;5044;48.652;9.250;2023-04-25T18:11:21;5.53;;;3.53;;
10009;SDS011;5044;48.652;9.250;2023-04-25T18:14:03;6.03;;;3.20;;
10009;SDS011;5044;48.652;9.250;2023-04-25T18:16:38;5.97;;;3.72;;
10009;SDS011;5044;48.652;9.250;2023-04-25T18:19:20;6.45;;;4.03;;
10009;SDS011;5044;48.652;9.250;2023-04-25T18:22:05;12.70;;;4.63;;
10009;SDS011;5044;48.652;9.250;2023-04-25T18:24:37;11.25;;;5.57;;
10009;SDS011;5044;48.652;9.250;2023-04-25T18:27:12;7.70;;;4.10;;
10009;SDS011;5044;48.652;9.250;2023-04-25T18:29:46;9.00;;;4.30;;
10009;SDS011;5044;48.652;9.250;2023-04-25T18:32:19;7.18;;;4.13;;
10009;SDS011;5044;48.652;9.250;2023-04-25T18:34:48;8.02;;;4.20;;
10009;SDS011;5044;48.652;9.250;2023-04-25T18:37:24;7.63;;;4.53;;
10009;SDS011;5044;48.652;9.250;2023-04-25T18:40:08;5.70;;;4.00;;
10009;SDS011;5044;48.652;9.250;2023-04-25T18:42:53;5.63;;;4.20;;
10009;SDS011;5044;48.652;9.250;2023-04-25T18:45:25;6.70;;;3.97;;
10009;SDS011;5044;48.652;9.250;2023-04-25T18:47:56;5.78;;;3.00;;
10009;SDS011;5044;48.652;9.250;2023-04-25T18:50:27;3.83;;;3.08;;
10009;SDS011;5044;48.652;9.250;2023-04-25T18:53:32;5.43;;;3.58;;
10009;SDS011;5044;48.652;9.250;2023-04-25T18:56:37;4.43;;;3.25;;
10009;SDS011;5044;48.652;9.250;2023-04-25T18:59:30;5.20;;;3.28;;
10009;SDS011;5044;48.652;9.250;2023-04-25T19:02:10;5.53;;;3.42;;
10009;SDS011;5044;48.652;9.250;2023-04-25T19:04:46;4.68;;;3.78;;
10009;SDS011;5044;48.652;9.250;2023-04-25T19:07:16;7.22;;;4.00;;
10009;SDS011;5044;48.652;9.250;2023-04-25T19:09:49;6.70;;;5.10;;
10009;SDS011;5044;48.652;9.250;2023-04-25T19:12:16;6.93;;;3.78;;
10009;SDS011;5044;48.652;9.250;2023-04-25T19:14:43;5.95;;;4.78;;
10009;SDS011;5044;48.652;9.250;2023-04-25T19:17:11;5.50;;;4.07;;
10009;SDS011;5044;48.652;9.250;2023-04-25T19:19:38;6.90;;;4.10;;
10009;SDS011;5044;48.652;9.250;2023-04-25T19:22:05;7.07;;;4.18;;
10009;SDS011;5044;48.652;9.250;2023-04-25T19:24:32;6.57;;;3.55;;
10009;SDS011;5044;48.652;9.250;2023-04-25T19:26:59;9.88;;;4.43;;
10009;SDS011;5044;48.652;9.250;2023-04-25T19:29:26;5.47;;;4.03;;
10009;SDS011;5044;48.652;9.250;2023-04-25T19:31:54;11.75;;;4.90;;
10009;SDS011;5044;48.652;9.250;2023-04-25T19:34:24;14.60;;;6.68;;
10009;SDS011;5044;48.652;9.250;2023-04-25T19:36:52;7.38;;;5.15;;
10009;SDS011;5044;48.652;9.250;2023-04-25T19:39:20;8.00;;;5.15;;
10009;SDS011;5044;48.652;9.250;2023-04-25T19:41:47;8.65;;;4.53;;
10009;SDS011;5044;48.652;9.250;2023-04-25T19:44:14;7.70;;;4.38;;
10009;SDS011;5044;48.652;9.250;2023-04-25T19:46:41;7.05;;;4.60;;
10009;SDS011;5044;48.652;9.250;2023-04-25T19:49:10;14.07;;;5.70;;
10009;SDS011;5044;48.652;9.250;2023-04-25T19:51:38;7.70;;;4.20;;
10009;SDS011;5044;48.652;9.250;2023-04-25T19:54:07;9.38;;;4.03;;
10009;SDS011;5044;48.652;9.250;2023-04-25T19:56:34;9.02;;;4.53;;
10009;SDS011;5044;48.652;9.250;2023-04-25T19:59:01;12.25;;;4.88;;
10009;SDS011;5044;48.652;9.250;2023-04-25T20:01:28;5.78;;;4.40;;
10009;SDS011;5044;48.652;9.250;2023-04-25T20:03:55;8.98;;;5.18;;
10009;SDS011;5044;48.652;9.250;2023-04-25T20:06:22;8.15;;;4.55;;
10009;SDS011;5044;48.652;9.250;2023-04-25T20:08:53;9.35;;;4.38;;
10009;SDS011;5044;48.652;9.250;2023-04-25T20:11:20;6.80;;;5.00;;
10009;SDS011;5044;48.652;9.250;2023-04-25T20:13:47;5.68;;;4.35;;
10009;SDS011;5044;48.652;9.250;2023-04-25T20:16:14;5.30;;;3.80;;
10009;SDS011;5044;48.652;9.250;2023-04-25T20:18:43;4.88;;;3.85;;
10009;SDS011;5044;48.652;9.250;2023-04-25T20:21:11;7.07;;;3.42;;
10009;SDS011;5044;48.652;9.250;2023-04-25T20:23:38;5.60;;;3.13;;
10009;SDS011;5044;48.652;9.250;2023-04-25T20:26:07;6.65;;;2.85;;
10009;SDS011;5044;48.652;9.250;2023-04-25T20:28:36;7.07;;;2.95;;
10009;SDS011;5044;48.652;9.250;2023-04-25T20:31:03;8.43;;;3.17;;
10009;SDS011;5044;48.652;9.250;2023-04-25T20:33:30;5.30;;;2.53;;
10009;SDS011;5044;48.652;9.250;2023-04-25T20:35:57;5.00;;;3.05;;
10009;SDS011;5044;48.652;9.250;2023-04-25T20:38:24;3.50;;;2.60;;
10009;SDS011;5044;48.652;9.250;2023-04-25T20:40:52;5.90;;;2.65;;
10009;SDS011;5044;48.652;9.250;2023-04-25T20:43:21;4.38;;;2.25;;
10009;SDS011;5044;48.652;9.250;2023-04-25T20:45:49;4.88;;;2.80;;
10009;SDS011;5044;48.652;9.250;2023-04-25T20:48:17;4.75;;;2.70;;
10009;SDS011;5044;48.652;9.250;2023-04-25T20:50:44;2.65;;;2.15;;
10009;SDS011;5044;48.652;9.250;2023-04-25T20:53:11;2.60;;;1.98;;
10009;SDS011;5044;48.652;9.250;2023-04-25T20:55:38;3.47;;;2.25;;
10009;SDS011;5044;48.652;9.250;2023-04-25T20:58:05;4.05;;;2.63;;
10009;SDS011;5044;48.652;9.250;2023-04-25T21:00:33;4.78;;;2.53;;
10009;SDS011;5044;48.652;9.250;2023-04-25T21:03:03;5.13;;;2.80;;
10009;SDS011;5044;48.652;9.250;2023-04-25T21:05:31;3.25;;;2.80;;
10009;SDS011;5044;48.652;9.250;2023-04-25T21:07:58;2.72;;;2.10;;
10009;SDS011;5044;48.652;9.250;2023-04-25T21:10:25;3.15;;;2.42;;
10009;SDS011;5044;48.652;9.250;2023-04-25T21:12:52;4.45;;;1.92;;
10009;SDS011;5044;48.652;9.250;2023-04-25T21:15:20;3.05;;;2.35;;
10009;SDS011;5044;48.652;9.250;2023-04-25T21:17:50;5.22;;;2.80;;
10009;SDS011;5044;48.652;9.250;2023-04-25T21:20:17;6.38;;;3.30;;
10009;SDS011;5044;48.652;9.250;2023-04-25T21:22:46;4.25;;;2.65;;
10009;SDS011;5044;48.652;9.250;2023-04-25T21:25:14;6.00;;;2.33;;
10009;SDS011;5044;48.652;9.250;2023-04-25T21:27:44;4.55;;;2.35;;
10009;SDS011;5044;48.652;9.250;2023-04-25T21:30:13;3.67;;;3.08;;
10009;SDS011;5044;48.652;9.250;2023-04-25T21:32:41;2.67;;;2.10;;
10009;SDS011;5044;48.652;9.250;2023-04-25T21:35:10;3.13;;;2.25;;
10009;SDS011;5044;48.652;9.250;2023-04-25T21:37:37;3.40;;;2.03;;
10009;SDS011;5044;48.652;9.250;2023-04-25T21:40:05;5.00;;;2.33;;
10009;SDS011;5044;48.652;9.250;2023-04-25T21:42:33;3.22;;;2.65;;
10009;SDS011;5044;48.652;9.250;2023-04-25T21:45:00;3.67;;;2.42;;
10009;SDS011;5044;48.652;9.250;2023-04-25T21:47:27;3.60;;;2.67;;
10009;SDS011;5044;48.652;9.250;2023-04-25T21:49:54;3.33;;;2.20;;
10009;SDS011;5044;48.652;9.250;2023-04-25T21:52:22;3.28;;;2.13;;
10009;SDS011;5044;48.652;9.250;2023-04-25T21:54:49;4.57;;;2.40;;
10009;SDS011;5044;48.652;9.250;2023-04-25T21:57:16;4.63;;;2.40;;
10009;SDS011;5044;48.652;9.250;2023-04-25T21:59:43;2.67;;;2.10;;
10009;SDS011;5044;48.652;9.250;2023-04-25T22:02:10;5.90;;;2.08;;
10009;SDS011;5044;48.652;9.250;2023-04-25T22:04:37;3.90;;;2.17;;
10009;SDS011;5044;48.652;9.250;2023-04-25T22:07:06;3.03;;;1.85;;
10009;SDS011;5044;48.652;9.250;2023-04-25T22:09:35;2.33;;;1.85;;
10009;SDS011;5044;48.652;9.250;2023-04-25T22:12:02;4.30;;;2.72;;
10009;SDS011;5044;48.652;9.250;2023-04-25T22:14:29;4.22;;;2.53;;
10009;SDS011;5044;48.652;9.250;2023-04-25T22:16:56;4.80;;;2.65;;